sensor_id;sensor_type;location;lat;lon;timestamp;P1;durP1;ratioP1;P2;durP2;ratioP2
83199;SDS011;73092;49.132;8.920;2024-03-08T00:01:14;40.37;;;17.97;;
83199;SDS011;73092;49.132;8.920;2024-03-08T00:03:41;38.13;;;17.25;;
83199;SDS011;73092;49.132;8.920;2024-03-08T00:06:07;40.42;;;18.98;;
83199;SDS011;73092;49.132;8.920;2024-03-08T00:08:32;40.60;;;18.40;;
83199;SDS011;73092;49.132;8.920;2024-03-08T00:10:59;37.60;;;19.00;;
83199;SDS011;73092;49.132;8.920;2024-03-08T00:13:24;41.47;;;18.08;;
83199;SDS011;73092;49.132;8.920;2024-03-08T00:15:50;35.53;;;17.48;;
83199;SDS011;73092;49.132;8.920;2024-03-08T00:18:15;39.17;;;18.27;;
83199;SDS011;73092;49.132;8.920;2024-03-08T00:20:41;43.92;;;19.83;;
83199;SDS011;73092;49.132;8.920;2024-03-08T00:23:07;41.42;;;19.48;;
83199;SDS011;73092;49.132;8.920;2024-03-08T00:25:32;40.60;;;16.83;;
83199;SDS011;73092;49.132;8.920;2024-03-08T00:27:59;39.25;;;18.73;;
83199;SDS011;73092;49.132;8.920;2024-03-08T00:30:25;41.95;;;20.05;;
83199;SDS011;73092;49.132;8.920;2024-03-08T00:32:50;44.58;;;20.60;;
83199;SDS011;73092;49.132;8.920;2024-03-08T00:35:15;44.40;;;19.70;;
83199;SDS011;73092;49.132;8.920;2024-03-08T00:37:42;38.55;;;19.13;;
83199;SDS011;73092;49.132;8.920;2024-03-08T00:40:08;42.42;;;18.52;;
83199;SDS011;73092;49.132;8.920;2024-03-08T00:42:36;39.40;;;18.25;;
83199;SDS011;73092;49.132;8.920;2024-03-08T00:45:03;47.13;;;20.73;;
83199;SDS011;73092;49.132;8.920;2024-03-08T00:47:32;38.83;;;19.40;;
83199;SDS011;73092;49.132;8.920;2024-03-08T00:49:57;37.77;;;17.50;;
83199;SDS011;73092;49.132;8.920;2024-03-08T00:52:29;40.80;;;19.15;;
83199;SDS011;73092;49.132;8.920;2024-03-08T00:54:54;44.22;;;20.33;;
83199;SDS011;73092;49.132;8.920;2024-03-08T00:57:20;44.73;;;20.73;;
83199;SDS011;73092;49.132;8.920;2024-03-08T00:59:46;40.67;;;18.42;;
83199;SDS011;73092;49.132;8.920;2024-03-08T01:02:12;42.53;;;20.50;;
83199;SDS011;73092;49.132;8.920;2024-03-08T01:04:37;42.77;;;20.17;;
83199;SDS011;73092;49.132;8.920;2024-03-08T01:07:03;46.25;;;19.95;;
83199;SDS011;73092;49.132;8.920;2024-03-08T01:09:28;44.70;;;19.47;;
83199;SDS011;73092;49.132;8.920;2024-03-08T01:11:54;39.42;;;20.02;;
83199;SDS011;73092;49.132;8.920;2024-03-08T01:14:23;42.50;;;19.80;;
83199;SDS011;73092;49.132;8.920;2024-03-08T01:16:54;43.63;;;20.17;;
83199;SDS011;73092;49.132;8.920;2024-03-08T01:19:19;47.10;;;20.67;;
83199;SDS011;73092;49.132;8.920;2024-03-08T01:21:45;42.28;;;19.40;;
83199;SDS011;73092;49.132;8.920;2024-03-08T01:24:11;48.00;;;19.92;;
83199;SDS011;73092;49.132;8.920;2024-03-08T01:26:36;44.92;;;22.63;;
83199;SDS011;73092;49.132;8.920;2024-03-08T01:29:02;48.87;;;20.90;;
83199;SDS011;73092;49.132;8.920;2024-03-08T01:31:28;30.55;;;17.00;;
83199;SDS011;73092;49.132;8.920;2024-03-08T01:33:55;48.28;;;19.95;;
83199;SDS011;73092;49.132;8.920;2024-03-08T01:36:21;41.47;;;19.67;;
83199;SDS011;73092;49.132;8.920;2024-03-08T01:38:48;33.13;;;17.05;;
83199;SDS011;73092;49.132;8.920;2024-03-08T01:41:13;43.03;;;20.83;;
83199;SDS011;73092;49.132;8.920;2024-03-08T01:43:41;44.22;;;19.33;;
83199;SDS011;73092;49.132;8.920;2024-03-08T01:46:07;42.33;;;20.27;;
83199;SDS011;73092;49.132;8.920;2024-03-08T01:48:34;43.85;;;21.23;;
83199;SDS011;73092;49.132;8.920;2024-03-08T01:50:59;43.03;;;19.92;;
83199;SDS011;73092;49.132;8.920;2024-03-08T01:53:26;42.38;;;19.73;;
83199;SDS011;73092;49.132;8.920;2024-03-08T01:55:52;43.75;;;19.80;;
83199;SDS011;73092;49.132;8.920;2024-03-08T01:58:21;43.78;;;19.60;;
83199;SDS011;73092;49.132;8.920;2024-03-08T02:00:48;46.20;;;21.65;;
83199;SDS011;73092;49.132;8.920;2024-03-08T02:03:14;51.53;;;21.48;;
83199;SDS011;73092;49.132;8.920;2024-03-08T02:05:41;45.70;;;20.05;;
83199;SDS011;73092;49.132;8.920;2024-03-08T02:08:08;38.88;;;18.65;;
83199;SDS011;73092;49.132;8.920;2024-03-08T02:10:38;46.40;;;20.95;;
83199;SDS011;73092;49.132;8.920;2024-03-08T02:13:04;43.65;;;20.63;;
83199;SDS011;73092;49.132;8.920;2024-03-08T02:18:18;42.17;;;20.88;;
83199;SDS011;73092;49.132;8.920;2024-03-08T02:20:44;43.78;;;18.58;;
83199;SDS011;73092;49.132;8.920;2024-03-08T02:23:12;48.55;;;20.15;;
83199;SDS011;73092;49.132;8.920;2024-03-08T02:25:39;50.60;;;21.02;;
83199;SDS011;73092;49.132;8.920;2024-03-08T02:28:04;44.10;;;19.77;;
83199;SDS011;73092;49.132;8.920;2024-03-08T02:30:30;40.30;;;19.00;;
83199;SDS011;73092;49.132;8.920;2024-03-08T02:32:55;49.00;;;20.83;;
83199;SDS011;73092;49.132;8.920;2024-03-08T02:35:21;40.97;;;19.67;;
83199;SDS011;73092;49.132;8.920;2024-03-08T02:37:46;53.38;;;20.65;;
83199;SDS011;73092;49.132;8.920;2024-03-08T02:40:12;40.20;;;18.83;;
83199;SDS011;73092;49.132;8.920;2024-03-08T02:42:38;45.00;;;19.48;;
83199;SDS011;73092;49.132;8.920;2024-03-08T02:45:04;42.00;;;20.77;;
83199;SDS011;73092;49.132;8.920;2024-03-08T02:47:30;41.58;;;19.77;;
83199;SDS011;73092;49.132;8.920;2024-03-08T02:49:56;46.60;;;22.15;;
83199;SDS011;73092;49.132;8.920;2024-03-08T02:52:23;45.20;;;18.40;;
83199;SDS011;73092;49.132;8.920;2024-03-08T02:54:48;48.43;;;20.23;;
83199;SDS011;73092;49.132;8.920;2024-03-08T02:57:15;43.90;;;20.80;;
83199;SDS011;73092;49.132;8.920;2024-03-08T02:59:40;42.70;;;18.92;;
83199;SDS011;73092;49.132;8.920;2024-03-08T03:02:07;45.72;;;19.33;;
83199;SDS011;73092;49.132;8.920;2024-03-08T03:04:35;42.67;;;18.05;;
83199;SDS011;73092;49.132;8.920;2024-03-08T03:07:01;43.65;;;19.63;;
83199;SDS011;73092;49.132;8.920;2024-03-08T03:09:28;45.83;;;18.98;;
83199;SDS011;73092;49.132;8.920;2024-03-08T03:11:56;43.35;;;18.73;;
83199;SDS011;73092;49.132;8.920;2024-03-08T03:14:22;44.28;;;21.42;;
83199;SDS011;73092;49.132;8.920;2024-03-08T03:16:47;43.70;;;19.15;;
83199;SDS011;73092;49.132;8.920;2024-03-08T03:19:12;43.88;;;19.95;;
83199;SDS011;73092;49.132;8.920;2024-03-08T03:21:38;47.13;;;19.25;;
83199;SDS011;73092;49.132;8.920;2024-03-08T03:24:03;45.57;;;20.23;;
83199;SDS011;73092;49.132;8.920;2024-03-08T03:26:36;48.22;;;19.80;;
83199;SDS011;73092;49.132;8.920;2024-03-08T03:29:05;41.97;;;20.55;;
83199;SDS011;73092;49.132;8.920;2024-03-08T03:31:33;44.67;;;19.13;;
83199;SDS011;73092;49.132;8.920;2024-03-08T03:33:59;48.90;;;20.23;;
83199;SDS011;73092;49.132;8.920;2024-03-08T03:36:27;51.50;;;19.25;;
83199;SDS011;73092;49.132;8.920;2024-03-08T03:38:53;49.15;;;18.73;;
83199;SDS011;73092;49.132;8.920;2024-03-08T03:41:29;37.75;;;16.70;;
83199;SDS011;73092;49.132;8.920;2024-03-08T03:43:55;42.67;;;17.27;;
83199;SDS011;73092;49.132;8.920;2024-03-08T03:46:21;45.87;;;20.27;;
83199;SDS011;73092;49.132;8.920;2024-03-08T03:48:47;44.20;;;18.90;;
83199;SDS011;73092;49.132;8.920;2024-03-08T03:51:12;46.67;;;19.30;;
83199;SDS011;73092;49.132;8.920;2024-03-08T03:53:40;44.35;;;20.10;;
83199;SDS011;73092;49.132;8.920;2024-03-08T03:56:05;36.17;;;16.25;;
83199;SDS011;73092;49.132;8.920;2024-03-08T03:58:32;51.05;;;19.92;;
83199;SDS011;73092;49.132;8.920;2024-03-08T04:00:58;42.85;;;18.92;;
83199;SDS011;73092;49.132;8.920;2024-03-08T04:03:24;49.42;;;19.77;;
83199;SDS011;73092;49.132;8.920;2024-03-08T04:05:50;44.73;;;20.27;;
83199;SDS011;73092;49.132;8.920;2024-03-08T04:08:16;44.95;;;20.20;;
83199;SDS011;73092;49.132;8.920;2024-03-08T04:10:42;39.75;;;18.58;;
83199;SDS011;73092;49.132;8.920;2024-03-08T04:13:07;43.17;;;20.25;;
83199;SDS011;73092;49.132;8.920;2024-03-08T04:15:34;44.38;;;19.10;;
83199;SDS011;73092;49.132;8.920;2024-03-08T04:18:00;40.63;;;19.02;;
83199;SDS011;73092;49.132;8.920;2024-03-08T04:20:27;37.65;;;17.63;;
83199;SDS011;73092;49.132;8.920;2024-03-08T04:22:52;42.58;;;19.10;;
83199;SDS011;73092;49.132;8.920;2024-03-08T04:25:18;45.37;;;19.33;;
83199;SDS011;73092;49.132;8.920;2024-03-08T04:27:45;47.60;;;18.33;;
83199;SDS011;73092;49.132;8.920;2024-03-08T04:30:12;44.97;;;19.27;;
83199;SDS011;73092;49.132;8.920;2024-03-08T04:32:37;77.72;;;38.00;;
83199;SDS011;73092;49.132;8.920;2024-03-08T04:35:03;44.57;;;20.77;;
83199;SDS011;73092;49.132;8.920;2024-03-08T04:37:28;40.97;;;19.35;;
83199;SDS011;73092;49.132;8.920;2024-03-08T04:39:57;49.83;;;21.00;;
83199;SDS011;73092;49.132;8.920;2024-03-08T04:42:23;50.47;;;20.45;;
83199;SDS011;73092;49.132;8.920;2024-03-08T04:44:50;46.22;;;20.88;;
83199;SDS011;73092;49.132;8.920;2024-03-08T04:47:15;47.50;;;20.30;;
83199;SDS011;73092;49.132;8.920;2024-03-08T04:49:42;41.15;;;18.27;;
83199;SDS011;73092;49.132;8.920;2024-03-08T04:52:08;48.53;;;21.40;;
83199;SDS011;73092;49.132;8.920;2024-03-08T04:54:33;40.60;;;19.30;;
83199;SDS011;73092;49.132;8.920;2024-03-08T04:56:59;46.38;;;21.15;;
83199;SDS011;73092;49.132;8.920;2024-03-08T04:59:25;47.75;;;20.83;;
83199;SDS011;73092;49.132;8.920;2024-03-08T05:01:52;40.67;;;18.13;;
83199;SDS011;73092;49.132;8.920;2024-03-08T05:04:17;44.40;;;20.90;;
83199;SDS011;73092;49.132;8.920;2024-03-08T05:06:42;50.90;;;21.43;;
83199;SDS011;73092;49.132;8.920;2024-03-08T05:09:08;43.40;;;21.13;;
83199;SDS011;73092;49.132;8.920;2024-03-08T05:11:40;43.58;;;19.88;;
83199;SDS011;73092;49.132;8.920;2024-03-08T05:14:06;43.92;;;18.30;;
83199;SDS011;73092;49.132;8.920;2024-03-08T05:16:32;45.07;;;19.13;;
83199;SDS011;73092;49.132;8.920;2024-03-08T05:18:57;44.10;;;23.13;;
83199;SDS011;73092;49.132;8.920;2024-03-08T05:21:22;49.83;;;19.20;;
83199;SDS011;73092;49.132;8.920;2024-03-08T05:23:48;47.25;;;22.02;;
83199;SDS011;73092;49.132;8.920;2024-03-08T05:26:15;54.33;;;23.42;;
83199;SDS011;73092;49.132;8.920;2024-03-08T05:28:41;45.50;;;20.88;;
83199;SDS011;73092;49.132;8.920;2024-03-08T05:31:06;50.10;;;21.73;;
83199;SDS011;73092;49.132;8.920;2024-03-08T05:33:31;48.08;;;21.73;;
83199;SDS011;73092;49.132;8.920;2024-03-08T05:35:59;51.80;;;22.52;;
83199;SDS011;73092;49.132;8.920;2024-03-08T05:38:25;52.10;;;20.95;;
83199;SDS011;73092;49.132;8.920;2024-03-08T05:40:51;41.47;;;17.00;;
83199;SDS011;73092;49.132;8.920;2024-03-08T05:43:16;46.25;;;20.88;;
83199;SDS011;73092;49.132;8.920;2024-03-08T05:45:44;51.50;;;21.77;;
83199;SDS011;73092;49.132;8.920;2024-03-08T05:48:10;42.58;;;20.40;;
83199;SDS011;73092;49.132;8.920;2024-03-08T05:50:37;45.22;;;19.10;;
83199;SDS011;73092;49.132;8.920;2024-03-08T05:53:03;41.42;;;18.45;;
83199;SDS011;73092;49.132;8.920;2024-03-08T05:55:32;47.92;;;21.60;;
83199;SDS011;73092;49.132;8.920;2024-03-08T05:58:00;47.20;;;21.10;;
83199;SDS011;73092;49.132;8.920;2024-03-08T06:00:26;56.53;;;22.67;;
83199;SDS011;73092;49.132;8.920;2024-03-08T06:02:52;49.55;;;20.98;;
83199;SDS011;73092;49.132;8.920;2024-03-08T06:05:17;48.92;;;23.58;;
83199;SDS011;73092;49.132;8.920;2024-03-08T06:07:43;47.55;;;21.60;;
83199;SDS011;73092;49.132;8.920;2024-03-08T06:10:08;47.45;;;20.25;;
83199;SDS011;73092;49.132;8.920;2024-03-08T06:12:38;54.20;;;22.98;;
83199;SDS011;73092;49.132;8.920;2024-03-08T06:15:06;48.30;;;19.42;;
83199;SDS011;73092;49.132;8.920;2024-03-08T06:17:34;55.75;;;22.38;;
83199;SDS011;73092;49.132;8.920;2024-03-08T06:19:59;50.35;;;20.08;;
83199;SDS011;73092;49.132;8.920;2024-03-08T06:22:25;54.35;;;20.50;;
83199;SDS011;73092;49.132;8.920;2024-03-08T06:24:50;51.00;;;21.23;;
83199;SDS011;73092;49.132;8.920;2024-03-08T06:27:16;53.67;;;20.85;;
83199;SDS011;73092;49.132;8.920;2024-03-08T06:29:42;50.35;;;21.85;;
83199;SDS011;73092;49.132;8.920;2024-03-08T06:32:08;43.47;;;19.40;;
83199;SDS011;73092;49.132;8.920;2024-03-08T06:34:33;49.60;;;22.27;;
83199;SDS011;73092;49.132;8.920;2024-03-08T06:37:01;45.10;;;19.38;;
83199;SDS011;73092;49.132;8.920;2024-03-08T06:39:27;47.47;;;21.77;;
83199;SDS011;73092;49.132;8.920;2024-03-08T06:41:56;47.35;;;21.83;;
83199;SDS011;73092;49.132;8.920;2024-03-08T06:44:22;40.33;;;18.08;;
83199;SDS011;73092;49.132;8.920;2024-03-08T06:46:47;43.47;;;19.10;;
83199;SDS011;73092;49.132;8.920;2024-03-08T06:49:13;45.38;;;19.75;;
83199;SDS011;73092;49.132;8.920;2024-03-08T06:51:38;50.92;;;20.40;;
83199;SDS011;73092;49.132;8.920;2024-03-08T06:54:06;43.25;;;20.70;;
83199;SDS011;73092;49.132;8.920;2024-03-08T06:56:33;45.60;;;19.85;;
83199;SDS011;73092;49.132;8.920;2024-03-08T06:58:59;39.67;;;19.73;;
83199;SDS011;73092;49.132;8.920;2024-03-08T07:01:25;43.17;;;21.70;;
83199;SDS011;73092;49.132;8.920;2024-03-08T07:03:50;45.03;;;19.10;;
83199;SDS011;73092;49.132;8.920;2024-03-08T07:06:17;41.53;;;19.58;;
83199;SDS011;73092;49.132;8.920;2024-03-08T07:08:44;46.08;;;20.38;;
83199;SDS011;73092;49.132;8.920;2024-03-08T07:11:11;45.08;;;22.65;;
83199;SDS011;73092;49.132;8.920;2024-03-08T07:13:36;40.63;;;19.33;;
83199;SDS011;73092;49.132;8.920;2024-03-08T07:16:04;39.65;;;19.08;;
83199;SDS011;73092;49.132;8.920;2024-03-08T07:18:30;49.83;;;22.05;;
83199;SDS011;73092;49.132;8.920;2024-03-08T07:20:56;44.90;;;21.10;;
83199;SDS011;73092;49.132;8.920;2024-03-08T07:23:21;50.53;;;21.45;;
83199;SDS011;73092;49.132;8.920;2024-03-08T07:26:05;49.78;;;20.98;;
83199;SDS011;73092;49.132;8.920;2024-03-08T07:28:31;47.67;;;21.50;;
83199;SDS011;73092;49.132;8.920;2024-03-08T07:30:57;43.83;;;21.17;;
83199;SDS011;73092;49.132;8.920;2024-03-08T07:33:42;52.50;;;21.42;;
83199;SDS011;73092;49.132;8.920;2024-03-08T07:36:07;43.85;;;20.13;;
83199;SDS011;73092;49.132;8.920;2024-03-08T07:38:33;47.75;;;22.23;;
83199;SDS011;73092;49.132;8.920;2024-03-08T07:40:58;41.80;;;19.17;;
83199;SDS011;73092;49.132;8.920;2024-03-08T07:43:25;39.58;;;19.55;;
83199;SDS011;73092;49.132;8.920;2024-03-08T07:45:51;45.95;;;20.08;;
83199;SDS011;73092;49.132;8.920;2024-03-08T07:48:18;43.65;;;20.35;;
83199;SDS011;73092;49.132;8.920;2024-03-08T07:50:44;38.03;;;18.60;;
83199;SDS011;73092;49.132;8.920;2024-03-08T07:53:10;46.30;;;20.57;;
83199;SDS011;73092;49.132;8.920;2024-03-08T07:55:35;48.92;;;20.58;;
83199;SDS011;73092;49.132;8.920;2024-03-08T07:58:01;50.65;;;19.88;;
83199;SDS011;73092;49.132;8.920;2024-03-08T08:00:27;44.08;;;20.92;;
83199;SDS011;73092;49.132;8.920;2024-03-08T08:02:55;45.90;;;19.25;;
83199;SDS011;73092;49.132;8.920;2024-03-08T08:05:21;42.47;;;19.98;;
83199;SDS011;73092;49.132;8.920;2024-03-08T08:07:46;44.35;;;19.85;;
83199;SDS011;73092;49.132;8.920;2024-03-08T08:10:12;44.55;;;20.75;;
83199;SDS011;73092;49.132;8.920;2024-03-08T08:12:43;45.60;;;21.42;;
83199;SDS011;73092;49.132;8.920;2024-03-08T08:15:09;39.65;;;20.48;;
83199;SDS011;73092;49.132;8.920;2024-03-08T08:17:34;45.92;;;20.45;;
83199;SDS011;73092;49.132;8.920;2024-03-08T08:20:00;46.13;;;19.83;;
83199;SDS011;73092;49.132;8.920;2024-03-08T08:22:25;35.17;;;18.00;;
83199;SDS011;73092;49.132;8.920;2024-03-08T08:24:51;39.87;;;19.40;;
83199;SDS011;73092;49.132;8.920;2024-03-08T08:27:17;45.47;;;18.70;;
83199;SDS011;73092;49.132;8.920;2024-03-08T08:29:42;48.08;;;21.02;;
83199;SDS011;73092;49.132;8.920;2024-03-08T08:32:08;41.00;;;21.30;;
83199;SDS011;73092;49.132;8.920;2024-03-08T08:34:34;38.15;;;17.92;;
83199;SDS011;73092;49.132;8.920;2024-03-08T08:36:59;40.90;;;20.07;;
83199;SDS011;73092;49.132;8.920;2024-03-08T08:39:25;43.25;;;19.05;;
83199;SDS011;73092;49.132;8.920;2024-03-08T08:41:51;41.75;;;19.52;;
83199;SDS011;73092;49.132;8.920;2024-03-08T08:44:17;41.90;;;20.70;;
83199;SDS011;73092;49.132;8.920;2024-03-08T08:46:42;35.50;;;18.53;;
83199;SDS011;73092;49.132;8.920;2024-03-08T08:49:07;38.55;;;18.67;;
83199;SDS011;73092;49.132;8.920;2024-03-08T08:54:01;39.30;;;15.95;;
83199;SDS011;73092;49.132;8.920;2024-03-08T08:56:27;31.17;;;15.68;;
83199;SDS011;73092;49.132;8.920;2024-03-08T08:58:53;38.33;;;17.60;;
83199;SDS011;73092;49.132;8.920;2024-03-08T09:01:19;33.33;;;16.35;;
83199;SDS011;73092;49.132;8.920;2024-03-08T09:03:45;40.60;;;17.80;;
83199;SDS011;73092;49.132;8.920;2024-03-08T09:06:15;33.22;;;16.30;;
83199;SDS011;73092;49.132;8.920;2024-03-08T09:08:41;36.65;;;17.63;;
83199;SDS011;73092;49.132;8.920;2024-03-08T09:11:07;34.85;;;15.85;;
83199;SDS011;73092;49.132;8.920;2024-03-08T09:13:32;35.92;;;18.88;;
83199;SDS011;73092;49.132;8.920;2024-03-08T09:15:58;38.15;;;18.45;;
83199;SDS011;73092;49.132;8.920;2024-03-08T09:18:24;36.13;;;16.55;;
83199;SDS011;73092;49.132;8.920;2024-03-08T09:20:50;34.45;;;17.27;;
83199;SDS011;73092;49.132;8.920;2024-03-08T09:23:16;36.28;;;17.33;;
83199;SDS011;73092;49.132;8.920;2024-03-08T09:25:44;36.28;;;17.00;;
83199;SDS011;73092;49.132;8.920;2024-03-08T09:28:10;36.80;;;15.93;;
83199;SDS011;73092;49.132;8.920;2024-03-08T09:30:37;39.83;;;17.65;;
83199;SDS011;73092;49.132;8.920;2024-03-08T09:33:03;30.98;;;14.65;;
83199;SDS011;73092;49.132;8.920;2024-03-08T09:35:29;28.35;;;14.18;;
83199;SDS011;73092;49.132;8.920;2024-03-08T09:37:55;35.40;;;17.17;;
83199;SDS011;73092;49.132;8.920;2024-03-08T09:40:21;38.50;;;17.00;;
83199;SDS011;73092;49.132;8.920;2024-03-08T09:45:13;35.80;;;16.47;;
83199;SDS011;73092;49.132;8.920;2024-03-08T09:47:42;31.05;;;14.88;;
83199;SDS011;73092;49.132;8.920;2024-03-08T09:50:09;33.83;;;16.90;;
83199;SDS011;73092;49.132;8.920;2024-03-08T09:52:37;34.10;;;15.60;;
83199;SDS011;73092;49.132;8.920;2024-03-08T09:55:08;33.10;;;18.15;;
83199;SDS011;73092;49.132;8.920;2024-03-08T09:57:36;27.50;;;15.57;;
83199;SDS011;73092;49.132;8.920;2024-03-08T10:00:02;26.08;;;15.02;;
83199;SDS011;73092;49.132;8.920;2024-03-08T10:02:44;35.20;;;15.88;;
83199;SDS011;73092;49.132;8.920;2024-03-08T10:05:10;34.38;;;16.70;;
83199;SDS011;73092;49.132;8.920;2024-03-08T10:07:37;30.88;;;15.75;;
83199;SDS011;73092;49.132;8.920;2024-03-08T10:10:03;31.17;;;15.32;;
83199;SDS011;73092;49.132;8.920;2024-03-08T10:12:29;33.53;;;15.82;;
83199;SDS011;73092;49.132;8.920;2024-03-08T10:14:55;36.25;;;16.52;;
83199;SDS011;73092;49.132;8.920;2024-03-08T10:17:21;36.28;;;15.15;;
83199;SDS011;73092;49.132;8.920;2024-03-08T10:19:50;35.03;;;15.90;;
83199;SDS011;73092;49.132;8.920;2024-03-08T10:22:16;34.83;;;16.48;;
83199;SDS011;73092;49.132;8.920;2024-03-08T10:24:44;33.22;;;15.05;;
83199;SDS011;73092;49.132;8.920;2024-03-08T10:27:10;29.52;;;15.15;;
83199;SDS011;73092;49.132;8.920;2024-03-08T10:29:36;32.33;;;14.77;;
83199;SDS011;73092;49.132;8.920;2024-03-08T10:32:02;32.08;;;15.30;;
83199;SDS011;73092;49.132;8.920;2024-03-08T10:34:30;32.28;;;17.02;;
83199;SDS011;73092;49.132;8.920;2024-03-08T10:36:56;33.40;;;15.60;;
83199;SDS011;73092;49.132;8.920;2024-03-08T10:39:29;34.42;;;14.88;;
83199;SDS011;73092;49.132;8.920;2024-03-08T10:42:02;31.45;;;13.80;;
83199;SDS011;73092;49.132;8.920;2024-03-08T10:52:15;35.35;;;15.60;;
83199;SDS011;73092;49.132;8.920;2024-03-08T10:54:43;27.48;;;13.75;;
83199;SDS011;73092;49.132;8.920;2024-03-08T10:57:10;39.22;;;17.08;;
83199;SDS011;73092;49.132;8.920;2024-03-08T10:59:37;29.77;;;16.35;;
83199;SDS011;73092;49.132;8.920;2024-03-08T11:02:04;32.78;;;15.27;;
83199;SDS011;73092;49.132;8.920;2024-03-08T11:04:30;33.80;;;15.88;;
83199;SDS011;73092;49.132;8.920;2024-03-08T11:07:01;32.65;;;15.02;;
83199;SDS011;73092;49.132;8.920;2024-03-08T11:09:32;32.50;;;14.70;;
83199;SDS011;73092;49.132;8.920;2024-03-08T11:14:45;35.38;;;16.05;;
83199;SDS011;73092;49.132;8.920;2024-03-08T11:17:14;26.77;;;13.80;;
83199;SDS011;73092;49.132;8.920;2024-03-08T11:19:45;31.33;;;14.50;;
83199;SDS011;73092;49.132;8.920;2024-03-08T11:22:22;34.63;;;15.68;;
83199;SDS011;73092;49.132;8.920;2024-03-08T11:24:52;32.50;;;15.52;;
83199;SDS011;73092;49.132;8.920;2024-03-08T11:27:17;31.15;;;14.77;;
83199;SDS011;73092;49.132;8.920;2024-03-08T11:29:42;32.20;;;15.77;;
83199;SDS011;73092;49.132;8.920;2024-03-08T11:32:09;36.38;;;15.77;;
83199;SDS011;73092;49.132;8.920;2024-03-08T11:34:36;39.38;;;15.05;;
83199;SDS011;73092;49.132;8.920;2024-03-08T11:37:04;34.63;;;15.60;;
83199;SDS011;73092;49.132;8.920;2024-03-08T11:39:34;37.92;;;17.10;;
83199;SDS011;73092;49.132;8.920;2024-03-08T11:42:02;38.25;;;17.08;;
83199;SDS011;73092;49.132;8.920;2024-03-08T11:44:27;33.35;;;16.42;;
83199;SDS011;73092;49.132;8.920;2024-03-08T11:46:53;34.40;;;16.77;;
83199;SDS011;73092;49.132;8.920;2024-03-08T11:49:19;35.15;;;15.02;;
83199;SDS011;73092;49.132;8.920;2024-03-08T11:51:44;24.13;;;11.95;;
83199;SDS011;73092;49.132;8.920;2024-03-08T11:54:11;33.05;;;16.30;;
83199;SDS011;73092;49.132;8.920;2024-03-08T11:56:38;32.40;;;13.93;;
83199;SDS011;73092;49.132;8.920;2024-03-08T11:59:03;35.15;;;16.48;;
83199;SDS011;73092;49.132;8.920;2024-03-08T12:01:30;40.92;;;16.67;;
83199;SDS011;73092;49.132;8.920;2024-03-08T12:03:57;33.83;;;14.27;;
83199;SDS011;73092;49.132;8.920;2024-03-08T12:06:24;37.88;;;18.75;;
83199;SDS011;73092;49.132;8.920;2024-03-08T12:08:51;34.25;;;14.02;;
83199;SDS011;73092;49.132;8.920;2024-03-08T12:11:19;38.78;;;16.00;;
83199;SDS011;73092;49.132;8.920;2024-03-08T12:13:48;28.40;;;12.98;;
83199;SDS011;73092;49.132;8.920;2024-03-08T12:16:16;32.85;;;15.85;;
83199;SDS011;73092;49.132;8.920;2024-03-08T12:18:46;37.22;;;17.33;;
83199;SDS011;73092;49.132;8.920;2024-03-08T12:21:13;33.95;;;16.10;;
83199;SDS011;73092;49.132;8.920;2024-03-08T12:23:42;34.40;;;15.55;;
83199;SDS011;73092;49.132;8.920;2024-03-08T12:26:12;36.33;;;16.52;;
83199;SDS011;73092;49.132;8.920;2024-03-08T12:28:42;34.30;;;16.52;;
83199;SDS011;73092;49.132;8.920;2024-03-08T12:31:11;35.47;;;18.02;;
83199;SDS011;73092;49.132;8.920;2024-03-08T12:33:52;36.95;;;15.88;;
83199;SDS011;73092;49.132;8.920;2024-03-08T12:36:20;33.28;;;16.38;;
83199;SDS011;73092;49.132;8.920;2024-03-08T12:38:46;33.75;;;15.90;;
83199;SDS011;73092;49.132;8.920;2024-03-08T12:41:15;35.45;;;16.05;;
83199;SDS011;73092;49.132;8.920;2024-03-08T12:43:42;37.58;;;17.55;;
83199;SDS011;73092;49.132;8.920;2024-03-08T12:46:13;33.88;;;16.30;;
83199;SDS011;73092;49.132;8.920;2024-03-08T12:48:45;39.38;;;18.40;;
83199;SDS011;73092;49.132;8.920;2024-03-08T12:51:14;38.15;;;18.33;;
83199;SDS011;73092;49.132;8.920;2024-03-08T12:53:41;37.25;;;16.35;;
83199;SDS011;73092;49.132;8.920;2024-03-08T12:56:09;36.92;;;15.70;;
83199;SDS011;73092;49.132;8.920;2024-03-08T12:58:38;38.00;;;17.90;;
83199;SDS011;73092;49.132;8.920;2024-03-08T13:01:04;35.30;;;17.30;;
83199;SDS011;73092;49.132;8.920;2024-03-08T13:03:32;38.83;;;15.70;;
83199;SDS011;73092;49.132;8.920;2024-03-08T13:05:59;32.53;;;15.43;;
83199;SDS011;73092;49.132;8.920;2024-03-08T13:08:25;35.35;;;16.10;;
83199;SDS011;73092;49.132;8.920;2024-03-08T13:10:52;34.30;;;15.63;;
83199;SDS011;73092;49.132;8.920;2024-03-08T13:13:18;36.00;;;16.98;;
83199;SDS011;73092;49.132;8.920;2024-03-08T13:15:44;34.08;;;15.95;;
83199;SDS011;73092;49.132;8.920;2024-03-08T13:18:10;38.70;;;18.52;;
83199;SDS011;73092;49.132;8.920;2024-03-08T13:20:36;31.15;;;14.63;;
83199;SDS011;73092;49.132;8.920;2024-03-08T13:23:04;34.90;;;15.30;;
83199;SDS011;73092;49.132;8.920;2024-03-08T13:25:30;39.33;;;16.80;;
83199;SDS011;73092;49.132;8.920;2024-03-08T13:27:56;32.92;;;15.93;;
83199;SDS011;73092;49.132;8.920;2024-03-08T13:30:24;34.90;;;17.17;;
83199;SDS011;73092;49.132;8.920;2024-03-08T13:32:54;36.20;;;17.88;;
83199;SDS011;73092;49.132;8.920;2024-03-08T13:35:20;33.70;;;16.02;;
83199;SDS011;73092;49.132;8.920;2024-03-08T13:37:50;37.67;;;17.77;;
83199;SDS011;73092;49.132;8.920;2024-03-08T13:40:16;39.10;;;18.05;;
83199;SDS011;73092;49.132;8.920;2024-03-08T13:42:48;34.50;;;16.70;;
83199;SDS011;73092;49.132;8.920;2024-03-08T13:45:14;37.95;;;17.25;;
83199;SDS011;73092;49.132;8.920;2024-03-08T13:47:46;36.30;;;17.20;;
83199;SDS011;73092;49.132;8.920;2024-03-08T13:50:12;34.77;;;16.13;;
83199;SDS011;73092;49.132;8.920;2024-03-08T13:52:38;30.60;;;15.48;;
83199;SDS011;73092;49.132;8.920;2024-03-08T13:55:06;35.67;;;17.58;;
83199;SDS011;73092;49.132;8.920;2024-03-08T13:57:32;39.50;;;20.00;;
83199;SDS011;73092;49.132;8.920;2024-03-08T13:59:58;39.03;;;17.83;;
83199;SDS011;73092;49.132;8.920;2024-03-08T14:02:24;41.45;;;17.88;;
83199;SDS011;73092;49.132;8.920;2024-03-08T14:04:55;33.17;;;16.98;;
83199;SDS011;73092;49.132;8.920;2024-03-08T14:07:21;36.17;;;18.35;;
83199;SDS011;73092;49.132;8.920;2024-03-08T14:09:48;34.95;;;18.13;;
83199;SDS011;73092;49.132;8.920;2024-03-08T14:12:14;37.42;;;18.63;;
83199;SDS011;73092;49.132;8.920;2024-03-08T14:14:40;36.22;;;18.30;;
83199;SDS011;73092;49.132;8.920;2024-03-08T14:17:07;33.70;;;16.10;;
83199;SDS011;73092;49.132;8.920;2024-03-08T14:19:34;41.25;;;18.60;;
83199;SDS011;73092;49.132;8.920;2024-03-08T14:22:00;42.83;;;20.08;;
83199;SDS011;73092;49.132;8.920;2024-03-08T14:24:29;37.83;;;19.27;;
83199;SDS011;73092;49.132;8.920;2024-03-08T14:26:55;40.03;;;19.38;;
83199;SDS011;73092;49.132;8.920;2024-03-08T14:29:23;38.42;;;18.38;;
83199;SDS011;73092;49.132;8.920;2024-03-08T14:31:50;38.72;;;17.73;;
83199;SDS011;73092;49.132;8.920;2024-03-08T14:34:16;46.10;;;19.30;;
83199;SDS011;73092;49.132;8.920;2024-03-08T14:36:41;37.47;;;18.27;;